createdAt,value
2023-04-25T00:01:59.505Z,22.05
2023-04-25T00:06:58.786Z,21.96
2023-04-25T00:11:57.094Z,21.72
2023-04-25T00:16:57.361Z,21.80
2023-04-25T00:21:55.629Z,20.98
2023-04-25T00:26:55.918Z,21.56
2023-04-25T00:31:57.256Z,20.66
2023-04-25T00:36:53.383Z,20.85
2023-04-25T00:41:52.640Z,20.91
2023-04-25T00:46:51.981Z,20.82
2023-04-25T00:51:51.077Z,20.02
2023-04-25T00:56:51.352Z,20.16
2023-04-25T01:01:49.703Z,19.83
2023-04-25T01:06:50.790Z,20.24
2023-04-25T01:11:47.061Z,20.52
2023-04-25T01:16:47.416Z,20.23
2023-04-25T01:21:46.563Z,20.06
2023-04-25T01:26:45.880Z,19.95
2023-04-25T01:31:45.150Z,19.69
2023-04-25T01:36:44.440Z,19.76
2023-04-25T01:41:44.702Z,19.43
2023-04-25T01:46:45.004Z,18.55
2023-04-25T01:51:43.250Z,19.00
2023-04-25T01:56:41.494Z,18.98
2023-04-25T02:01:41.848Z,19.44
2023-04-25T02:06:40.942Z,19.29
2023-04-25T02:11:40.229Z,19.04
2023-04-25T02:16:38.629Z,18.87
2023-04-25T02:21:37.790Z,19.44
2023-04-25T02:26:37.069Z,19.31
2023-04-25T02:31:36.377Z,18.99
2023-04-25T02:36:35.503Z,18.91
2023-04-25T02:41:34.788Z,19.23
2023-04-25T02:46:39.369Z,19.40
2023-04-25T02:51:34.331Z,19.66
2023-04-25T02:56:31.650Z,19.84
2023-04-25T03:01:32.964Z,20.03
2023-04-25T03:06:33.142Z,19.25
2023-04-25T03:11:30.425Z,19.63
2023-04-25T03:16:30.816Z,19.48
2023-04-25T03:21:28.911Z,19.61
2023-04-25T03:26:29.205Z,19.58
2023-04-25T03:31:27.507Z,18.90
2023-04-25T03:36:26.778Z,19.56
2023-04-25T03:41:27.050Z,19.40
2023-04-25T03:46:25.419Z,18.80
2023-04-25T03:51:24.653Z,18.95
2023-04-25T03:56:24.948Z,18.75
2023-04-25T04:01:23.220Z,18.23
2023-04-25T04:06:22.471Z,18.33
2023-04-25T04:11:22.721Z,18.54
2023-04-25T04:16:22.037Z,18.57
2023-04-25T04:21:22.338Z,18.44
2023-04-25T04:26:22.645Z,18.41
2023-04-25T04:31:18.989Z,18.66
2023-04-25T04:36:18.263Z,18.60
2023-04-25T04:41:18.554Z,18.81
2023-04-25T04:46:18.964Z,19.22
2023-04-25T04:51:16.049Z,19.33
2023-04-25T04:56:16.354Z,19.92
2023-04-25T05:01:14.646Z,19.78
2023-04-25T05:06:13.927Z,19.84
2023-04-25T05:11:14.200Z,19.88
2023-04-25T05:16:11.482Z,20.20
2023-04-25T05:21:13.762Z,20.18
2023-04-25T05:26:11.013Z,20.13
2023-04-25T05:31:12.353Z,19.92
2023-04-25T05:36:11.631Z,19.92
2023-04-25T05:41:08.957Z,19.80
2023-04-25T05:46:10.297Z,19.91
2023-04-25T05:51:09.551Z,19.91
2023-04-25T05:56:07.794Z,19.99
2023-04-25T06:01:08.023Z,20.01
2023-04-25T06:06:06.641Z,20.01
2023-04-25T06:11:04.416Z,19.91
2023-04-25T06:16:03.711Z,19.92
2023-04-25T06:21:03.960Z,19.84
2023-04-25T06:26:02.210Z,19.87
2023-04-25T06:31:01.577Z,19.92
2023-04-25T06:36:00.660Z,19.81
2023-04-25T06:40:58.949Z,20.05
2023-04-25T06:45:59.190Z,20.33
2023-04-25T06:50:58.466Z,20.54
2023-04-25T06:55:58.719Z,20.77
2023-04-25T07:00:57.085Z,20.85
2023-04-25T07:05:57.189Z,21.14
2023-04-25T07:10:55.878Z,21.17
2023-04-25T07:15:57.171Z,21.22
2023-04-25T07:20:53.974Z,21.24
2023-04-25T07:25:57.415Z,21.22
2023-04-25T07:30:53.499Z,21.06
2023-04-25T07:35:51.796Z,20.92
2023-04-25T07:40:51.060Z,20.64
2023-04-25T07:45:50.340Z,20.47
2023-04-25T07:50:49.645Z,20.36
2023-04-25T07:55:48.918Z,19.96
2023-04-25T08:00:50.242Z,19.46
2023-04-25T08:05:48.670Z,19.56
2023-04-25T08:10:47.765Z,19.19
2023-04-25T08:15:46.118Z,19.66
2023-04-25T08:20:45.195Z,19.39
2023-04-25T08:25:44.511Z,19.73
2023-04-25T08:30:43.870Z,19.61
2023-04-25T08:35:44.129Z,19.02
2023-04-25T08:40:42.414Z,18.85
2023-04-25T08:45:43.761Z,18.57
2023-04-25T08:50:41.015Z,18.85
2023-04-25T08:55:42.456Z,18.42
2023-04-25T09:00:39.588Z,18.95
2023-04-25T09:05:38.938Z,18.18
2023-04-25T09:10:38.042Z,17.82
2023-04-25T09:15:37.293Z,17.79
2023-04-25T09:20:40.382Z,17.82
2023-04-25T09:25:35.816Z,18.17
2023-04-25T09:30:36.156Z,18.78
2023-04-25T09:35:34.283Z,18.82
2023-04-25T09:40:33.636Z,18.70
2023-04-25T09:45:32.952Z,18.63
2023-04-25T09:50:32.291Z,18.25
2023-04-25T09:55:31.513Z,18.47
2023-04-25T10:00:30.837Z,18.65
2023-04-25T10:05:30.122Z,18.75
2023-04-25T10:10:32.067Z,19.00
2023-04-25T10:15:32.859Z,18.92
2023-04-25T10:20:27.922Z,19.13
2023-04-25T10:25:27.209Z,19.22
2023-04-25T10:30:27.488Z,19.23
2023-04-25T10:35:25.785Z,19.39
2023-04-25T10:40:23.983Z,19.51
2023-04-25T10:45:25.101Z,19.48
2023-04-25T10:50:23.391Z,19.76
2023-04-25T10:55:23.659Z,19.65
2023-04-25T11:00:23.713Z,19.77
2023-04-25T11:05:22.086Z,19.16
2023-04-25T11:10:21.362Z,18.92
2023-04-25T11:15:19.624Z,18.67
2023-04-25T11:20:18.916Z,18.39
2023-04-25T11:25:20.204Z,18.62
2023-04-25T11:30:18.461Z,19.18
2023-04-25T11:35:16.740Z,19.11
2023-04-25T11:40:16.059Z,19.07
2023-04-25T11:45:15.529Z,18.76
2023-04-25T11:50:15.663Z,18.21
2023-04-25T11:55:13.933Z,18.55
2023-04-25T12:00:17.485Z,18.91
2023-04-25T12:05:30.318Z,19.31
2023-04-25T12:10:12.706Z,19.46
2023-04-25T12:15:10.999Z,19.62
2023-04-25T12:20:10.350Z,19.62
2023-04-25T12:25:09.480Z,19.71
2023-04-25T12:30:08.702Z,19.84
2023-04-25T12:35:06.773Z,19.84
2023-04-25T12:40:08.095Z,19.88
2023-04-25T12:45:07.392Z,19.99
2023-04-25T12:50:06.707Z,19.88
2023-04-25T12:55:04.977Z,19.99
2023-04-25T13:00:06.261Z,20.10
2023-04-25T13:05:03.523Z,20.18
2023-04-25T13:10:02.830Z,20.18
2023-04-25T13:15:02.120Z,20.23
2023-04-25T13:20:01.409Z,20.29
2023-04-25T13:25:00.664Z,20.29
2023-04-25T13:30:01.929Z,20.26
2023-04-25T13:34:59.213Z,20.42
2023-04-25T13:39:58.537Z,20.21
2023-04-25T13:44:57.821Z,19.91
2023-04-25T13:49:57.092Z,19.56
2023-04-25T13:54:56.396Z,19.23
2023-04-25T13:59:56.685Z,19.40
2023-04-25T14:04:55.073Z,19.02
2023-04-25T14:09:56.299Z,18.36
2023-04-25T14:14:54.442Z,18.81
2023-04-25T14:19:54.532Z,19.25
2023-04-25T14:24:52.829Z,20.32
2023-04-25T14:29:52.132Z,20.47
2023-04-25T14:34:51.435Z,20.02
2023-04-25T14:39:49.744Z,19.61
2023-04-25T14:44:49.062Z,19.46
2023-04-25T14:49:50.361Z,19.69
2023-04-25T14:54:47.672Z,19.81
2023-04-25T14:59:48.954Z,20.01
2023-04-25T15:04:46.419Z,19.95
2023-04-25T15:09:47.508Z,19.81
2023-04-25T15:14:45.765Z,19.63
2023-04-25T15:19:46.061Z,19.83
2023-04-25T15:24:43.396Z,19.40
2023-04-25T15:29:43.708Z,19.54
2023-04-25T15:34:42.993Z,19.55
2023-04-25T15:39:40.254Z,19.71
2023-04-25T15:44:40.542Z,19.77
2023-04-25T15:49:40.815Z,19.65
2023-04-25T15:54:39.113Z,19.50
2023-04-25T15:59:38.408Z,19.74
2023-04-25T16:04:38.915Z,19.66
2023-04-25T16:09:37.994Z,19.65
2023-04-25T16:14:38.270Z,19.48
2023-04-25T16:19:35.578Z,19.46
2023-04-25T16:24:34.855Z,19.21
2023-04-25T16:29:34.140Z,19.37
2023-04-25T16:34:33.431Z,19.48
2023-04-25T16:39:32.684Z,19.37
2023-04-25T16:44:32.969Z,19.32
2023-04-25T16:49:33.210Z,19.41
2023-04-25T16:54:30.614Z,19.40
2023-04-25T16:59:31.704Z,19.65
2023-04-25T17:04:29.302Z,19.80
2023-04-25T17:09:30.447Z,19.88
2023-04-25T17:14:28.673Z,19.98
2023-04-25T17:19:28.905Z,19.87
2023-04-25T17:24:27.148Z,20.05
2023-04-25T17:29:26.080Z,20.10
2023-04-25T17:34:30.518Z,20.38
2023-04-25T17:39:23.971Z,20.76
2023-04-25T17:44:24.225Z,21.22
2023-04-25T17:49:23.196Z,21.68
2023-04-25T17:54:22.472Z,22.28
2023-04-25T17:59:22.781Z,22.77
2023-04-25T18:04:20.207Z,23.00
2023-04-25T18:09:20.696Z,23.22
2023-04-25T18:14:20.768Z,23.43
2023-04-25T18:19:20.509Z,23.57
2023-04-25T18:24:17.158Z,23.65
2023-04-25T18:29:31.445Z,23.83
2023-04-25T18:34:17.033Z,23.76
2023-04-25T18:39:22.451Z,23.85
2023-04-25T18:44:15.300Z,23.75
2023-04-25T18:49:14.903Z,23.91
2023-04-25T18:54:12.835Z,24.22
2023-04-25T18:59:12.402Z,24.21
2023-04-25T19:04:11.426Z,24.20
2023-04-25T19:09:10.784Z,24.67
2023-04-25T19:14:11.218Z,24.42
2023-04-25T19:19:09.596Z,24.47
2023-04-25T19:24:08.582Z,24.45
2023-04-25T19:29:07.938Z,24.60
2023-04-25T19:34:08.277Z,24.62
2023-04-25T19:39:07.704Z,24.99
2023-04-25T19:44:05.660Z,24.69
2023-04-25T19:49:06.652Z,24.49
2023-04-25T19:54:02.889Z,25.17
2023-04-25T19:59:03.030Z,24.96
2023-04-25T20:04:03.659Z,24.71
2023-04-25T20:09:01.954Z,24.60
2023-04-25T20:14:01.975Z,24.68
2023-04-25T20:19:01.386Z,25.10
2023-04-25T20:23:59.331Z,25.08
2023-04-25T20:28:58.941Z,25.50
2023-04-25T20:33:59.896Z,25.51
2023-04-25T20:38:58.301Z,25.75
2023-04-25T20:43:56.399Z,26.09
2023-04-25T20:48:55.720Z,25.75
2023-04-25T20:53:54.992Z,25.52
2023-04-25T20:58:54.511Z,25.46
2023-04-25T21:03:53.734Z,25.39
2023-04-25T21:08:53.003Z,25.30
2023-04-25T21:13:51.847Z,25.05
2023-04-25T21:18:52.372Z,25.83
2023-04-25T21:24:32.348Z,25.47
2023-04-25T21:28:49.799Z,25.35
2023-04-25T21:33:49.891Z,25.50
2023-04-25T22:53:39.665Z,25.85
2023-04-25T22:58:37.918Z,25.70
2023-04-25T23:03:37.431Z,25.72
2023-04-25T23:08:37.503Z,26.26
2023-04-25T23:13:35.837Z,26.18
2023-04-25T23:18:36.152Z,26.10
2023-04-25T23:23:34.390Z,25.94
2023-04-25T23:28:33.663Z,25.75
2023-04-25T23:33:32.948Z,25.61
2023-04-25T23:38:33.235Z,25.30
2023-04-25T23:43:31.490Z,24.95
2023-04-25T23:48:31.750Z,24.42
2023-04-25T23:53:31.040Z,23.68
2023-04-25T23:58:33.416Z,22.85
